DW5751 Trikala GR current weather conditions

sailwx.info

Wind from 125

Air temperature 12.2° C
Dewpoint 6.1° C

Last reported at 2020-Oct-26 09:02 UTC.
Time now 2020-Oct-26 10:03 UTC

Location: N 39°33' E 021°15'.
View on Google Maps.

See reports from other nearby stations

  
Tides and Currents Weather Stations Pressure Air Temp Water Temp Dewpoint Dewpoint Depression Visibility Wind Speed Wind Dir Waves Ship Positions
date/time (UTC)wind fromknots sea level pressurealtimeterstation pressurevisibilityair tempwater tempwave heightnotes
2020-Oct-26 09:02 125 12.2
2020-Oct-26 08:55 125 12.2
2020-Oct-26 08:50 125 11.7
2020-Oct-26 08:47 125 11.7
2020-Oct-26 08:35 140 11.1
2020-Oct-26 08:31 141 10.6
2020-Oct-26 08:25 141 10.6
2020-Oct-26 08:21 141 10.0
2020-Oct-26 08:16 141 10.0
2020-Oct-26 08:10 144 10.0
2020-Oct-26 08:05 144 9.4
2020-Oct-26 08:01 155 9.4
2020-Oct-26 07:55 165 9.4
2020-Oct-26 07:50 165 8.9
2020-Oct-26 07:45 176 8.9
2020-Oct-26 07:35 212 8.3
2020-Oct-26 07:31 212 7.8
2020-Oct-26 07:25 212 7.8
2020-Oct-26 07:20 212 7.2
2020-Oct-26 07:15 215 7.2
2020-Oct-26 07:10 215 6.7
2020-Oct-26 07:05 215 6.7
2020-Oct-26 07:00 215 6.7
2020-Oct-26 06:55 215 6.1
2020-Oct-26 06:46 215 5.6
2020-Oct-26 06:40 215 5.6
2020-Oct-26 06:36 215 5.0
2020-Oct-26 06:31 215 4.4
2020-Oct-26 06:25 215 3.9
2020-Oct-26 06:20 215 3.9
2020-Oct-26 06:15 215 3.3
2020-Oct-26 06:10 215 3.3
2020-Oct-26 06:05 215 2.8
2020-Oct-26 06:00 215 2.8
2020-Oct-26 05:55 215 2.8
2020-Oct-26 05:50 215 2.8
2020-Oct-26 05:46 215 2.8
2020-Oct-26 05:40 215 2.8
2020-Oct-26 05:30 215 2.8
2020-Oct-26 05:25 215 2.8
2020-Oct-26 05:20 215 2.8
2020-Oct-26 05:15
2020-Oct-26 05:10
2020-Oct-26 05:05
2020-Oct-26 05:00
2020-Oct-26 04:55
2020-Oct-26 04:50
2020-Oct-26 04:45
2020-Oct-26 04:40
2020-Oct-26 04:35
2020-Oct-26 04:30
2020-Oct-26 04:25
2020-Oct-26 04:16
2020-Oct-26 04:10
2020-Oct-26 04:05
2020-Oct-26 04:01
2020-Oct-26 03:55
2020-Oct-26 03:50
2020-Oct-25 20:00
2020-Oct-25 19:00
2020-Oct-25 18:05
2020-Oct-25 18:02
2020-Oct-25 17:03
2020-Oct-25 16:01 141 2 11.7
2020-Oct-25 15:10
2020-Oct-25 15:05
2020-Oct-25 15:00 12.2
2020-Oct-25 14:26 142 4 12.2
2020-Oct-25 14:18 179 5 12.2
2020-Oct-25 14:11 260 3 12.2
2020-Oct-25 14:06 218 6 12.2
2020-Oct-25 14:01 233 3 12.2
2020-Oct-25 13:41 190 4 13.9
2020-Oct-25 13:36 213 5 13.9
2020-Oct-25 13:31 183 6 14.4
2020-Oct-25 13:25 146 1 14.4
2020-Oct-25 13:21 202 6 15.0
2020-Oct-25 13:16 219 6 15.0
2020-Oct-25 13:11
2020-Oct-25 13:06
2020-Oct-25 13:01
2020-Oct-25 12:56
2020-Oct-25 12:51
2020-Oct-25 12:47
2020-Oct-25 12:40
2020-Oct-25 12:35
2020-Oct-25 12:31
2020-Oct-25 12:25
2020-Oct-25 12:20
2020-Oct-25 12:15
2020-Oct-25 12:10
2020-Oct-25 12:05
2020-Oct-25 12:01
2020-Oct-25 11:50
2020-Oct-25 11:45
2020-Oct-25 11:40
2020-Oct-25 11:35
2020-Oct-25 11:30
2020-Oct-25 11:20
2020-Oct-25 11:15
2020-Oct-25 11:10
2020-Oct-25 11:05
2020-Oct-25 10:55
2020-Oct-25 10:45
2020-Oct-25 10:40
2020-Oct-25 10:35
2020-Oct-25 10:25
2020-Oct-25 10:20 12.2
2020-Oct-25 10:10 11.7
2020-Oct-25 10:01 11.1
2020-Oct-25 09:56 11.1
2020-Oct-25 09:46 10.6
2020-Oct-25 09:40 10.6
2020-Oct-25 09:35 10.6
2020-Oct-25 09:30 10.6
2020-Oct-25 09:25 10.6
2020-Oct-25 09:20 10.6
2020-Oct-25 09:16 10.6
2020-Oct-25 09:10 10.6
2020-Oct-25 09:05 10.6
2020-Oct-25 08:55 9.4
2020-Oct-25 08:50 8.9
2020-Oct-25 08:46 8.9
2020-Oct-25 08:40 8.9
2020-Oct-25 08:36 8.9
2020-Oct-25 08:31 8.9
2020-Oct-25 08:25 8.3
2020-Oct-25 08:20 8.3
2020-Oct-25 08:16 036 2 8.3
2020-Oct-25 08:10 055 8.3
2020-Oct-25 08:05 065 8.3
2020-Oct-25 08:01 063 8.3
2020-Oct-25 07:55 063 8.3
2020-Oct-25 07:50 063 7.8
2020-Oct-25 07:40 063 7.8
2020-Oct-25 07:36 063 7.8
2020-Oct-25 07:32 063 7.8
2020-Oct-25 07:25 063 7.8
2020-Oct-25 07:20 056 7.8
2020-Oct-25 07:16 056 7.8
2020-Oct-25 07:10 086 7.8
2020-Oct-25 07:05 086 7.8
2020-Oct-25 07:01 086 8.3
2020-Oct-25 06:55 086 8.3
2020-Oct-25 06:50 086 7.8
2020-Oct-25 06:46 086 7.8
2020-Oct-25 06:40 086 7.8
2020-Oct-25 06:35 086 7.8
2020-Oct-25 06:30 086 7.8
2020-Oct-25 06:25 086 7.8
2020-Oct-25 06:20 086 7.8
2020-Oct-25 06:15 086 7.8
2020-Oct-25 06:10 086 7.8
2020-Oct-25 06:05 085 7.8
2020-Oct-25 06:01 086 7.8
2020-Oct-25 05:55 086 7.8
2020-Oct-25 05:50 086 7.8
2020-Oct-25 05:46 086 7.8
2020-Oct-25 05:35
2020-Oct-25 05:31
2020-Oct-25 05:25
2020-Oct-25 05:20
2020-Oct-25 05:15
2020-Oct-25 05:10
2020-Oct-25 05:05
2020-Oct-25 05:00
2020-Oct-25 04:55
2020-Oct-25 04:50
2020-Oct-25 04:45
2020-Oct-25 04:40
2020-Oct-25 04:35
2020-Oct-25 04:32
2020-Oct-25 04:26
2020-Oct-25 04:20
2020-Oct-25 04:17
2020-Oct-25 04:10
2020-Oct-25 04:05
2020-Oct-25 04:02
2020-Oct-25 03:55
2020-Oct-25 03:50
2020-Oct-25 03:46
2020-Oct-25 03:40
2020-Oct-25 03:31
2020-Oct-25 03:25
2020-Oct-25 03:20
2020-Oct-25 03:16
2020-Oct-25 03:10
2020-Oct-25 03:05
2020-Oct-25 03:00
2020-Oct-25 02:55
2020-Oct-25 02:50
2020-Oct-25 02:46
2020-Oct-25 02:40
2020-Oct-25 02:36
2020-Oct-25 02:30
2020-Oct-25 02:20
2020-Oct-25 02:15
2020-Oct-25 02:10 084 8.3
2020-Oct-25 02:05 084 8.3
2020-Oct-25 01:56 084 8.3
2020-Oct-25 01:50 084 8.3
2020-Oct-25 01:46 084 8.3
2020-Oct-25 01:40 084 8.3
2020-Oct-25 01:36 084 8.3
2020-Oct-25 01:25 084 8.3
2020-Oct-25 01:20 084 8.3
2020-Oct-25 01:16 084 8.3
2020-Oct-25 01:10 084 8.3
2020-Oct-25 01:05 084 8.3
2020-Oct-25 01:01 084 8.3
2020-Oct-25 00:55 084 8.3
2020-Oct-25 00:51 084 8.3
2020-Oct-25 00:45 084 8.3
2020-Oct-25 00:40 084 8.3
2020-Oct-25 00:36 084 8.3
2020-Oct-25 00:31 084 8.3
2020-Oct-25 00:25 084 8.3
2020-Oct-25 00:20 084 8.3
2020-Oct-25 00:16 084 8.3
2020-Oct-25 00:10 084 8.3
2020-Oct-25 00:05 084 8.3
2020-Oct-25 00:01 084 8.3
2020-Oct-24 23:55 084 8.3
2020-Oct-24 23:50 090 8.3
2020-Oct-24 23:45 066 8.3
2020-Oct-24 23:40 066 8.3
2020-Oct-24 23:35 066 8.3
2020-Oct-24 23:30 066 8.3
2020-Oct-24 23:25 066 8.3
2020-Oct-24 23:20 066 8.3
2020-Oct-24 23:15 066 8.3
2020-Oct-24 23:10 066 8.3
2020-Oct-24 23:05 066 8.3
2020-Oct-24 23:00 066 8.3
2020-Oct-24 22:55 066 8.3
2020-Oct-24 22:50 066 8.9
2020-Oct-24 22:45 066 8.9
2020-Oct-24 22:40 066 8.9
2020-Oct-24 22:35 066 8.9
2020-Oct-24 22:30 066 8.3
2020-Oct-24 22:20 066 8.3
2020-Oct-24 22:15 066 8.9
2020-Oct-24 22:10 064 8.9
2020-Oct-24 22:05 064 8.9
2020-Oct-24 22:00 064 8.9
2020-Oct-24 21:55 064 8.9
2020-Oct-24 21:50 064 8.9
2020-Oct-24 21:45 064 8.9
2020-Oct-24 21:40 064 8.9
2020-Oct-24 21:35 064 8.9
2020-Oct-24 21:30 064 8.9
2020-Oct-24 21:25 064 8.9
2020-Oct-24 21:20 064 8.9
2020-Oct-24 21:15 064 9.4
2020-Oct-24 21:06 064 9.4
2020-Oct-24 21:01 063 9.4
2020-Oct-24 20:56 063 9.4
2020-Oct-24 20:51 042 9.4
2020-Oct-24 20:46 042 9.4
2020-Oct-24 20:41 042 9.4
2020-Oct-24 20:36 042 9.4
2020-Oct-24 20:31 042 9.4
2020-Oct-24 20:26 042 10.0
2020-Oct-24 20:18 042 10.0
2020-Oct-24 20:11 042 10.0
2020-Oct-24 20:06 042 10.0
2020-Oct-24 20:02 042 10.0
2020-Oct-24 19:56 042 10.0
2020-Oct-24 19:51 042 10.0
2020-Oct-24 19:48 042 10.0
2020-Oct-24 19:40 042 10.0
2020-Oct-24 19:35 042 10.6
2020-Oct-24 19:32 042 10.6
2020-Oct-24 19:25 042 10.6
2020-Oct-24 19:20 042 10.6
2020-Oct-24 19:16 042 10.6
2020-Oct-24 19:10 042 10.6
2020-Oct-24 19:05 042 10.6
2020-Oct-24 19:01 042 10.6
2020-Oct-24 18:55 042 11.1
2020-Oct-24 18:50 042 11.1
2020-Oct-24 18:46 042 11.1
2020-Oct-24 18:40 042 11.1
2020-Oct-24 18:35 042 11.1
2020-Oct-24 18:30 042 11.1
2020-Oct-24 18:25 042 11.7
2020-Oct-24 18:20 042 11.7
2020-Oct-24 18:10 042 11.7
2020-Oct-24 18:05 042 11.7
2020-Oct-24 18:01 042 11.7
2020-Oct-24 17:55 042 11.7
2020-Oct-24 17:50 042 11.7
2020-Oct-24 17:46 042 12.2
2020-Oct-24 17:40 042 12.2
2020-Oct-24 17:35 042 12.2
2020-Oct-24 17:30 042 12.2
2020-Oct-24 17:25 042 12.2
2020-Oct-24 17:20 042 12.8
2020-Oct-24 17:15 042 12.8
2020-Oct-24 17:10 042 12.8
2020-Oct-24 17:05 039 12.8
2020-Oct-24 16:55 082 12.8
2020-Oct-24 16:50 088 12.8
2020-Oct-24 16:40 088 13.3
2020-Oct-24 16:35 088 13.3
2020-Oct-24 16:25 088 13.9
2020-Oct-24 16:15 088 13.9
2020-Oct-24 16:06 034 14.4
2020-Oct-24 16:02 005 14.4
2020-Oct-24 15:55 341 1 gusting 4 14.4
2020-Oct-24 15:51 093 15.0
2020-Oct-24 15:47 093 15.0
2020-Oct-24 15:40 036 15.0
2020-Oct-24 15:36 044 1 gusting 4 15.0
2020-Oct-24 15:31 013 15.6
2020-Oct-24 15:26 013 3 gusting 6 15.6
2020-Oct-24 15:20 051 2 gusting 6 15.6
2020-Oct-24 15:17 013 2 gusting 6 16.1
2020-Oct-24 15:10 350 3 gusting 6 16.1
2020-Oct-24 15:05 360 0 gusting 5 16.1
2020-Oct-24 15:00 020 2 gusting 5 16.1
2020-Oct-24 14:55 360 2 gusting 6 16.1
2020-Oct-24 14:50 348 1 gusting 6 16.7
2020-Oct-24 14:46 036 3 gusting 8 16.7
2020-Oct-24 14:40 300 4 gusting 7 16.7
2020-Oct-24 14:35 019 2 gusting 7 16.7
2020-Oct-24 14:30 023 4 gusting 8 16.7
2020-Oct-24 14:25 333 4 gusting 8 17.2
2020-Oct-24 14:20 355 4 gusting 9 17.2
2020-Oct-24 14:16 360 4 gusting 9 17.8
2020-Oct-24 14:11 005 4 gusting 7 17.8
2020-Oct-24 14:00 015 3 gusting 7 18.3
2020-Oct-24 13:55 360 2 gusting 8 18.3
2020-Oct-24 13:50 013 4 gusting 7 18.9
2020-Oct-24 13:46 277 1 gusting 7 18.9
2020-Oct-24 13:40 344 3 gusting 7 18.9
2020-Oct-24 13:35 019 4 gusting 7 18.9
2020-Oct-24 13:31 327 2 gusting 7 18.9
2020-Oct-24 13:25 330 2 gusting 7 18.9
2020-Oct-24 13:20 301 2 gusting 6 19.4
2020-Oct-24 13:15 338 2 gusting 7 19.4
2020-Oct-24 13:10 030 3 gusting 8 19.4
2020-Oct-24 13:05 028 1 gusting 8 20.0
2020-Oct-24 13:01 265 1 gusting 6 20.0
2020-Oct-24 12:55 344 2 gusting 7 20.0
2020-Oct-24 12:50 028 4 gusting 7 20.0
2020-Oct-24 12:46 022 1 gusting 5 20.6
2020-Oct-24 12:40 257 0 gusting 4 20.6
2020-Oct-24 12:35 090 1 gusting 6 20.6
2020-Oct-24 12:30 027 1 gusting 6 20.6
2020-Oct-24 12:25 034 2 gusting 6 20.6
2020-Oct-24 12:20 103 0 gusting 4 21.1
2020-Oct-24 12:15 317 21.1
2020-Oct-24 12:10 052 0 gusting 4 20.6
2020-Oct-24 12:05 088 0 gusting 3 20.6
2020-Oct-24 12:00 110 0 gusting 6 20.6
2020-Oct-24 11:55 026 1 gusting 6 20.6
2020-Oct-24 11:50 026 2 gusting 6 20.6
2020-Oct-24 11:45 109 0 gusting 4 20.0
2020-Oct-24 11:35 039 3 gusting 7 20.0
2020-Oct-24 11:30 019 3 gusting 7 20.6
2020-Oct-24 11:25 057 1 gusting 5 20.6
2020-Oct-24 11:16 360 0 gusting 4 20.6
2020-Oct-24 11:10 122 20.6
2020-Oct-24 11:06 107 20.6
2020-Oct-24 11:02 051 2 gusting 5 20.0
2020-Oct-24 10:55 114 0 gusting 3 20.0
2020-Oct-24 10:50 121 20.0
2020-Oct-24 10:45 116 20.0
2020-Oct-24 10:40 118 19.4
2020-Oct-24 10:35 111 19.4
2020-Oct-24 10:31 110 19.4
2020-Oct-24 10:25 114 18.9
2020-Oct-24 10:20 114 18.9
2020-Oct-24 10:15 115 18.9
2020-Oct-24 10:10 119 18.3
2020-Oct-24 10:05 120 18.3
2020-Oct-24 10:00 120 18.3